Time;durP1;ratioP1;P1;durP2;ratioP2;P2;SDS_P1;SDS_P2;PMS_P1;PMS_P2;Temp;Humidity;BMP_temperature;BMP_pressure;BME280_temperature;BME280_humidity;BME280_pressure;Samples;Min_cycle;Max_cycle;Signal;HPM_P1;HPM_P2
2022/11/15 00:00:49;;;;;;;0.85;0.60;;;;;;;18.14;51.55;100372.34;4798649;29;20063;-96
2022/11/15 00:03:20;;;;;;;0.60;0.52;;;;;;;18.23;51.56;100375.50;4809393;29;20104;-95
2022/11/15 00:05:46;;;;;;;0.88;0.60;;;;;;;18.22;51.47;100365.75;4789356;29;20062;-96
2022/11/15 00:08:12;;;;;;;1.23;0.70;;;;;;;18.18;51.69;100358.13;4798238;29;20034;-95
2022/11/15 00:10:37;;;;;;;0.80;0.50;;;;;;;18.22;51.54;100352.22;4797332;29;20028;-95
2022/11/15 00:13:07;;;;;;;0.38;0.38;;;;;;;18.22;51.64;100347.63;4804759;29;20041;-94
2022/11/15 00:15:37;;;;;;;1.90;0.70;;;;;;;18.24;51.84;100345.50;4787114;29;20051;-96
2022/11/15 00:18:03;;;;;;;0.60;0.60;;;;;;;18.17;51.80;100337.53;4798617;29;20116;-95
2022/11/15 00:20:29;;;;;;;0.50;0.50;;;;;;;18.23;51.65;100335.75;4794056;29;20481;-94
2022/11/15 00:22:55;;;;;;;0.60;0.50;;;;;;;18.17;51.59;100329.41;4798492;29;20110;-95
2022/11/15 00:25:21;;;;;;;0.60;0.50;;;;;;;18.18;51.59;100330.25;4793369;29;20058;-95
2022/11/15 00:27:46;;;;;;;0.40;0.40;;;;;;;18.16;51.72;100316.97;4806153;29;20039;-95
2022/11/15 00:30:15;;;;;;;0.75;0.50;;;;;;;18.18;51.59;100317.53;4788036;29;20393;-94
2022/11/15 00:32:41;;;;;;;0.95;0.52;;;;;;;18.22;51.77;100311.66;4789885;29;20480;-95
2022/11/15 00:35:07;;;;;;;1.45;0.90;;;;;;;18.27;51.59;100312.56;4793729;29;20045;-96
2022/11/15 00:37:32;;;;;;;1.05;0.60;;;;;;;18.29;51.66;100312.34;4793646;29;20065;-95
2022/11/15 00:39:58;;;;;;;0.47;0.38;;;;;;;18.28;51.78;100299.84;4794765;29;20027;-95
2022/11/15 00:42:23;;;;;;;0.60;0.50;;;;;;;18.29;51.73;100306.94;4798054;29;20034;-95
2022/11/15 00:44:49;;;;;;;1.05;0.55;;;;;;;18.22;51.74;100285.41;4797801;29;20038;-95
2022/11/15 00:47:15;;;;;;;0.90;0.50;;;;;;;18.28;51.55;100295.28;4801387;29;20492;-95
2022/11/15 00:49:41;;;;;;;0.68;0.60;;;;;;;18.26;51.84;100293.88;4796985;29;20499;-96
2022/11/15 00:52:07;;;;;;;0.98;0.60;;;;;;;18.25;51.68;100282.25;4805714;29;20106;-94
2022/11/15 00:54:32;;;;;;;0.55;0.45;;;;;;;18.26;51.73;100283.06;4784828;29;20090;-96
2022/11/15 00:56:58;;;;;;;0.70;0.47;;;;;;;18.27;51.87;100280.13;4802689;29;20105;-94
2022/11/15 00:59:23;;;;;;;0.82;0.40;;;;;;;18.30;51.54;100278.78;4800780;29;20365;-96
2022/11/15 01:01:52;;;;;;;0.82;0.45;;;;;;;18.19;51.85;100256.94;4804365;29;20038;-96
2022/11/15 01:04:21;;;;;;;0.40;0.40;;;;;;;18.25;51.82;100243.53;4800538;29;20039;-96
2022/11/15 01:06:47;;;;;;;1.77;0.50;;;;;;;18.20;51.91;100247.78;4825103;29;20507;-95
2022/11/15 01:09:13;;;;;;;0.45;0.35;;;;;;;18.18;51.80;100244.50;4774970;29;20082;-95
2022/11/15 01:11:39;;;;;;;1.08;0.50;;;;;;;18.15;51.79;100236.06;4807221;29;20088;-95
2022/11/15 01:14:05;;;;;;;0.50;0.40;;;;;;;18.16;51.81;100238.53;4814870;29;20031;-95
2022/11/15 01:16:31;;;;;;;0.40;0.40;;;;;;;18.28;51.89;100245.75;4797252;29;20034;-96
2022/11/15 01:18:56;;;;;;;0.85;0.47;;;;;;;18.18;51.73;100224.78;4815432;29;20025;-94
2022/11/15 01:21:22;;;;;;;0.95;0.57;;;;;;;18.20;51.84;100236.16;4811519;29;20118;-95
2022/11/15 01:23:47;;;;;;;0.70;0.50;;;;;;;18.17;51.86;100221.22;4803967;29;20069;-94
2022/11/15 01:26:14;;;;;;;0.68;0.45;;;;;;;18.19;51.81;100226.38;4813731;29;20102;-95
2022/11/15 01:28:40;;;;;;;0.98;0.40;;;;;;;18.20;51.79;100220.75;4815824;29;20130;-95
2022/11/15 01:31:09;;;;;;;0.40;0.40;;;;;;;18.26;51.90;100232.47;4808152;29;20737;-96
2022/11/15 01:33:38;;;;;;;0.80;0.40;;;;;;;18.30;51.84;100219.28;4800205;29;20039;-95
2022/11/15 01:36:08;;;;;;;0.70;0.50;;;;;;;18.24;51.98;100214.84;4819791;29;20112;-95
2022/11/15 01:38:34;;;;;;;0.47;0.40;;;;;;;18.22;51.92;100215.09;4800193;29;20042;-96
2022/11/15 01:41:00;;;;;;;0.60;0.40;;;;;;;18.19;51.83;100196.63;4811587;29;20155;-95
2022/11/15 01:43:27;;;;;;;0.35;0.30;;;;;;;18.18;51.86;100190.41;4811083;29;20084;-95
2022/11/15 01:45:59;;;;;;;0.43;0.40;;;;;;;18.25;51.81;100200.25;4813423;29;20033;-96
2022/11/15 01:48:26;;;;;;;1.25;0.50;;;;;;;18.21;51.75;100194.50;4800430;29;20095;-96
2022/11/15 01:50:52;;;;;;;0.47;0.40;;;;;;;18.15;51.97;100181.97;4800288;29;20109;-95
2022/11/15 01:53:17;;;;;;;0.35;0.30;;;;;;;18.22;51.89;100181.81;4811244;29;20126;-96
2022/11/15 01:55:43;;;;;;;0.50;0.40;;;;;;;18.27;51.79;100198.16;4791701;29;20030;-95
2022/11/15 01:58:09;;;;;;;0.65;0.40;;;;;;;18.23;51.82;100175.34;4810643;29;20041;-95
2022/11/15 02:00:34;;;;;;;0.55;0.40;;;;;;;18.28;52.00;100188.94;4791578;29;20515;-95
2022/11/15 02:03:00;;;;;;;0.40;0.32;;;;;;;18.29;51.95;100174.38;4810100;29;20306;-96
2022/11/15 02:05:26;;;;;;;0.73;0.40;;;;;;;18.27;52.02;100177.31;4804153;29;20117;-95
2022/11/15 02:07:51;;;;;;;0.57;0.40;;;;;;;18.31;51.82;100178.47;4795887;29;20606;-96
2022/11/15 02:10:19;;;;;;;0.35;0.22;;;;;;;18.30;51.92;100165.19;4786078;29;20018;-96
2022/11/15 02:12:45;;;;;;;0.43;0.40;;;;;;;18.31;52.00;100172.25;4801510;29;20041;-95
2022/11/15 02:15:11;;;;;;;0.77;0.50;;;;;;;18.31;52.05;100173.06;4809492;29;20492;-95
2022/11/15 02:17:58;;;;;;;0.40;0.40;;;;;;;18.32;52.06;100163.06;4794189;29;20107;-95
2022/11/15 02:20:33;;;;;;;0.30;0.30;;;;;;;18.30;51.93;100165.19;4814112;29;20030;-95
2022/11/15 02:23:16;;;;;;;0.40;0.30;;;;;;;18.31;52.02;100164.94;4803287;29;20069;-95
2022/11/15 02:26:17;;;;;;;0.70;0.32;;;;;;;18.29;51.89;100158.13;4799947;29;20050;-95
2022/11/15 02:29:01;;;;;;;0.35;0.35;;;;;;;18.31;51.82;100156.00;4814278;29;20042;-95
2022/11/15 02:31:38;;;;;;;0.70;0.30;;;;;;;18.30;52.21;100151.66;4810099;29;20323;-95
2022/11/15 02:34:13;;;;;;;0.50;0.30;;;;;;;18.29;51.95;100142.72;4795932;29;20039;-95
2022/11/15 02:37:03;;;;;;;0.50;0.40;;;;;;;18.32;51.80;100149.53;4809367;29;20031;-94
2022/11/15 02:39:35;;;;;;;0.50;0.38;;;;;;;18.30;51.95;100148.94;4787439;29;20592;-95
2022/11/15 02:43:56;;;;;;;0.30;0.30;;;;;;;18.31;52.00;100156.00;4811897;29;20083;-95
2022/11/15 02:44:57;;;;;;;1.75;0.20;;;;;;;18.34;51.83;100144.69;4798714;29;20054;-94
2022/11/15 02:47:22;;;;;;;0.63;0.40;;;;;;;18.30;51.85;100144.38;4787908;29;20059;-96
2022/11/15 02:49:50;;;;;;;0.57;0.30;;;;;;;18.32;51.90;100146.84;4794452;29;20123;-95
2022/11/15 02:52:16;;;;;;;0.47;0.40;;;;;;;18.32;51.78;100152.25;4791545;29;20030;-94
2022/11/15 02:54:42;;;;;;;0.55;0.30;;;;;;;18.32;51.90;100146.84;4797308;29;20042;-94
2022/11/15 02:57:12;;;;;;;0.32;0.30;;;;;;;18.32;51.84;100146.84;4807261;29;20122;-96
2022/11/15 02:59:49;;;;;;;0.40;0.30;;;;;;;18.32;51.96;100144.94;4808353;29;20104;-95
2022/11/15 03:02:28;;;;;;;0.30;0.30;;;;;;;18.33;51.82;100143.06;4794852;29;20086;-94
2022/11/15 03:05:09;;;;;;;0.30;0.30;;;;;;;18.32;51.84;100144.94;4808779;29;20035;-95
2022/11/15 03:08:05;;;;;;;0.30;0.30;;;;;;;18.35;51.68;100146.31;4803776;29;20031;-96
2022/11/15 03:10:46;;;;;;;0.43;0.35;;;;;;;18.32;51.80;100138.72;4814878;29;20041;-95
2022/11/15 03:13:30;;;;;;;0.57;0.25;;;;;;;18.33;51.60;100143.91;4762508;29;20042;-94
2022/11/15 03:16:04;;;;;;;0.20;0.20;;;;;;;18.34;51.66;100144.69;4793715;29;20378;-95
2022/11/15 03:18:35;;;;;;;0.20;0.20;;;;;;;18.34;51.57;100137.41;4799208;29;20034;-95
2022/11/15 03:21:03;;;;;;;0.30;0.30;;;;;;;18.34;51.61;100142.00;4808071;29;20530;-95
2022/11/15 03:23:29;;;;;;;0.30;0.30;;;;;;;18.34;51.51;100142.00;4814628;29;20053;-94
2022/11/15 03:25:54;;;;;;;0.30;0.25;;;;;;;18.34;51.37;100150.94;4776835;29;20034;-94
2022/11/15 03:28:41;;;;;;;0.88;0.50;;;;;;;18.33;51.52;100149.31;4790858;29;20054;-94
2022/11/15 03:31:46;;;;;;;0.30;0.30;;;;;;;18.35;51.63;100146.31;4778754;29;20133;-94
2022/11/15 03:33:53;;;;;;;0.30;0.20;;;;;;;18.30;51.50;100135.41;4804392;29;20583;-95
2022/11/15 03:36:27;;;;;;;0.30;0.30;;;;;;;18.34;51.68;100140.09;4789306;29;20031;-96
2022/11/15 03:38:56;;;;;;;;;;;;;;;18.35;51.68;100140.91;4793665;29;20425;-96
2022/11/15 03:41:24;;;;;;;0.40;0.20;;;;;;;18.33;51.53;100140.34;4802712;29;19924;-95
2022/11/15 03:44:04;;;;;;;0.68;0.30;;;;;;;18.36;51.48;100142.56;4782257;29;20026;-95
2022/11/15 03:46:37;;;;;;;0.30;0.30;;;;;;;18.34;51.38;100140.09;4794004;29;20041;-95
2022/11/15 03:49:06;;;;;;;0.60;0.30;;;;;;;18.33;51.39;100137.63;4791084;29;20035;-94
2022/11/15 03:51:32;;;;;;;0.20;0.20;;;;;;;18.35;51.22;100136.34;4782384;29;20039;-95
2022/11/15 03:53:57;;;;;;;0.28;0.25;;;;;;;18.34;51.26;100140.09;4804224;29;20038;-94
2022/11/15 03:56:23;;;;;;;0.20;0.20;;;;;;;18.35;51.03;100140.91;4812383;29;20395;-94
2022/11/15 03:58:49;;;;;;;0.30;0.30;;;;;;;18.29;51.08;100125.69;4807012;29;20030;-95
2022/11/15 04:01:15;;;;;;;0.20;0.20;;;;;;;18.32;51.00;100134.13;4813881;29;20058;-94
2022/11/15 04:03:40;;;;;;;0.22;0.22;;;;;;;18.28;50.99;100134.84;4797226;29;20050;-95
2022/11/15 04:06:06;;;;;;;0.25;0.25;;;;;;;18.31;50.84;100129.75;4811278;29;20094;-94
2022/11/15 04:08:31;;;;;;;0.22;0.22;;;;;;;18.31;50.83;100128.97;4796082;29;20038;-94
2022/11/15 04:10:57;;;;;;;0.40;0.30;;;;;;;18.24;51.06;100129.09;4808191;29;21397;-95
2022/11/15 04:13:23;;;;;;;0.30;0.30;;;;;;;18.33;50.95;100134.94;4807097;29;20034;-95
2022/11/15 04:15:48;;;;;;;0.20;0.20;;;;;;;18.22;50.83;100131.25;4816617;29;20852;-94
2022/11/15 04:18:14;;;;;;;0.20;0.20;;;;;;;18.30;50.77;100140.81;4800905;29;20022;-94
2022/11/15 04:26:12;;;;;;;0.20;0.20;;;;;;;18.23;50.68;100115.81;4804559;29;20112;-94
2022/11/15 04:29:33;;;;;;;0.28;0.28;;;;;;;18.28;50.80;100126.72;4797987;29;20030;-95
2022/11/15 04:31:24;;;;;;;0.10;0.10;;;;;;;18.25;50.67;100127.22;4808978;29;20400;-95
2022/11/15 04:33:49;;;;;;;0.20;0.20;;;;;;;18.26;50.67;100131.56;4790288;29;20035;-94
2022/11/15 04:38:59;;;;;;;0.30;0.25;;;;;;;18.31;50.84;100147.91;4810405;29;20106;-95
2022/11/15 04:41:25;;;;;;;0.30;0.20;;;;;;;18.23;50.65;100132.06;4808208;29;20042;-94
2022/11/15 04:43:50;;;;;;;0.22;0.20;;;;;;;18.33;50.83;100157.41;4805740;29;20105;-94
2022/11/15 04:46:16;;;;;;;0.17;0.17;;;;;;;18.27;50.73;100152.16;4814456;29;20399;-95
2022/11/15 04:48:42;;;;;;;0.63;0.30;;;;;;;18.28;50.58;100142.97;4813675;29;20410;-94
2022/11/15 04:51:07;;;;;;;0.20;0.20;;;;;;;18.28;50.66;100149.22;4811510;29;20552;-93
2022/11/15 04:53:33;;;;;;;0.20;0.20;;;;;;;18.24;50.47;100149.94;4806890;29;20027;-93
2022/11/15 04:55:58;;;;;;;0.20;0.20;;;;;;;18.31;50.42;100156.00;4808289;29;20353;-94
2022/11/15 04:58:24;;;;;;;0.55;0.25;;;;;;;18.24;50.37;100155.34;4796171;29;20027;-94
2022/11/15 05:00:50;;;;;;;0.30;0.30;;;;;;;18.36;49.94;100166.91;4807784;29;20062;-93
2022/11/15 05:05:59;;;;;;;0.25;0.25;;;;;;;18.34;50.14;100177.16;4797512;29;20176;-92
2022/11/15 05:08:25;;;;;;;0.30;0.20;;;;;;;18.30;50.05;100165.19;4790864;29;20522;-94
2022/11/15 05:10:51;;;;;;;0.20;0.20;;;;;;;18.32;50.03;100187.41;4794483;29;20062;-92
2022/11/15 05:13:17;;;;;;;0.10;0.10;;;;;;;18.35;49.97;100189.63;4792564;29;20234;-95
2022/11/15 05:15:42;;;;;;;0.20;0.20;;;;;;;18.34;50.02;100193.41;4813559;29;20042;-93
2022/11/15 05:18:08;;;;;;;0.20;0.20;;;;;;;18.35;50.13;100201.28;4800568;29;20063;-94
2022/11/15 05:20:33;;;;;;;0.20;0.20;;;;;;;18.35;49.83;100195.03;4794184;29;20473;-94
2022/11/15 05:22:59;;;;;;;0.10;0.10;;;;;;;18.34;50.09;100205.03;4784101;29;20023;-92
2022/11/15 05:25:25;;;;;;;0.10;0.10;;;;;;;18.34;49.77;100209.63;4793897;29;20191;-93
2022/11/15 05:27:50;;;;;;;0.10;0.10;;;;;;;18.33;49.81;100214.22;4771144;29;20036;-93
2022/11/15 05:30:16;;;;;;;0.20;0.20;;;;;;;18.35;49.73;100216.66;4790114;29;20043;-94
2022/11/15 05:32:42;;;;;;;0.10;0.10;;;;;;;18.33;49.60;100219.63;4798674;29;20468;-93
2022/11/15 05:35:09;;;;;;;1.88;0.20;;;;;;;18.32;49.54;100230.69;4800052;29;20035;-93
2022/11/15 05:37:34;;;;;;;0.20;0.20;;;;;;;18.34;49.58;100244.81;4788913;29;20519;-92
2022/11/15 05:40:00;;;;;;;0.10;0.10;;;;;;;18.32;49.54;100236.94;4794644;29;20029;-93
2022/11/15 05:42:25;;;;;;;0.10;0.10;;;;;;;18.31;49.44;100242.56;4794168;29;20549;-93
2022/11/15 05:44:51;;;;;;;0.10;0.10;;;;;;;18.31;49.33;100250.69;4788650;29;20029;-93
2022/11/15 05:47:20;;;;;;;0.20;0.20;;;;;;;18.29;49.15;100250.94;4795151;29;20073;-94
2022/11/15 05:49:45;;;;;;;0.10;0.10;;;;;;;18.32;49.10;100255.03;4793787;29;20027;-93
2022/11/15 05:52:12;;;;;;;0.20;0.20;;;;;;;18.33;49.05;100268.34;4796518;29;20052;-95
2022/11/15 05:54:38;;;;;;;0.20;0.20;;;;;;;18.31;49.10;100278.56;4801398;29;20121;-94
2022/11/15 05:57:04;;;;;;;0.50;0.20;;;;;;;18.33;48.99;100284.56;4788845;29;20152;-93
2022/11/15 05:59:30;;;;;;;0.10;0.10;;;;;;;18.33;48.78;100286.44;4795751;29;20031;-94
2022/11/15 06:01:56;;;;;;;0.85;0.20;;;;;;;18.31;48.97;100297.50;4799184;29;20047;-92
2022/11/15 06:04:21;;;;;;;0.10;0.10;;;;;;;18.31;48.60;100304.78;4794461;29;20458;-92
2022/11/15 06:06:47;;;;;;;0.20;0.20;;;;;;;18.32;48.73;100301.03;4788171;29;20027;-93
2022/11/15 06:09:13;;;;;;;0.20;0.20;;;;;;;18.32;48.71;100314.56;4792785;29;20039;-93
2022/11/15 06:11:39;;;;;;;0.43;0.30;;;;;;;18.33;48.56;100329.72;4817708;29;20090;-93
2022/11/15 06:14:04;;;;;;;0.20;0.20;;;;;;;18.33;48.40;100322.44;4805126;29;20031;-93
2022/11/15 06:16:30;;;;;;;0.10;0.10;;;;;;;18.32;48.29;100325.38;4795459;29;20023;-93
2022/11/15 06:18:56;;;;;;;0.73;0.20;;;;;;;18.30;48.37;100336.44;4816030;29;20031;-94
2022/11/15 06:21:21;;;;;;;0.10;0.10;;;;;;;18.32;48.41;100334.31;4813538;29;20030;-93
2022/11/15 06:23:47;;;;;;;0.10;0.10;;;;;;;18.30;48.49;100339.16;4815383;29;20039;-92
2022/11/15 06:26:13;;;;;;;0.15;0.15;;;;;;;18.33;48.25;100349.50;4790395;29;20030;-93
2022/11/15 06:28:38;;;;;;;0.17;0.17;;;;;;;18.35;48.26;100351.94;4812635;29;20077;-94
2022/11/15 06:31:08;;;;;;;0.10;0.10;;;;;;;18.34;48.17;100345.72;4788952;29;20034;-92
2022/11/15 06:33:34;;;;;;;0.10;0.10;;;;;;;18.33;48.21;100357.63;4803846;29;20039;-92
2022/11/15 06:36:07;;;;;;;0.20;0.20;;;;;;;18.35;48.09;100368.16;4814778;29;20037;-94
2022/11/15 06:38:32;;;;;;;0.10;0.10;;;;;;;18.28;48.25;100370.19;4774682;29;20104;-94
2022/11/15 06:41:02;;;;;;;0.17;0.17;;;;;;;18.27;48.36;100363.97;4770136;29;20034;-93
2022/11/15 06:43:28;;;;;;;0.15;0.15;;;;;;;18.25;48.16;100370.66;4785099;29;20049;-94
2022/11/15 06:45:53;;;;;;;0.10;0.10;;;;;;;18.27;48.06;100376.69;4766429;29;20121;-93
2022/11/15 06:48:19;;;;;;;0.20;0.20;;;;;;;18.31;48.23;100388.66;4784281;29;20031;-93
2022/11/15 06:50:51;;;;;;;0.20;0.20;;;;;;;18.27;48.09;100382.09;4769214;29;20461;-94
2022/11/15 06:53:17;;;;;;;0.10;0.10;;;;;;;18.33;48.05;100422.53;4784210;29;20031;-94
2022/11/15 06:55:44;;;;;;;0.10;0.10;;;;;;;18.30;47.92;100409.50;4757027;29;20457;-93
2022/11/15 06:58:09;;;;;;;0.20;0.20;;;;;;;18.29;48.11;100424.06;4761896;29;20050;-94
2022/11/15 07:00:35;;;;;;;0.10;0.10;;;;;;;18.28;48.12;100424.28;4771342;29;20391;-93
2022/11/15 07:03:01;;;;;;;0.20;0.20;;;;;;;18.35;47.88;100438.50;4769983;29;20050;-94
2022/11/15 07:05:27;;;;;;;0.20;0.20;;;;;;;18.27;47.92;100430.78;4771099;29;20046;-93
2022/11/15 07:07:56;;;;;;;0.70;0.20;;;;;;;18.28;48.10;100421.59;4783142;29;20471;-95
2022/11/15 07:10:23;;;;;;;0.10;0.10;;;;;;;18.34;47.92;100443.09;4768911;29;20033;-93
2022/11/15 07:12:50;;;;;;;0.10;0.10;;;;;;;18.30;47.89;100441.94;4785363;29;20031;-94
2022/11/15 07:15:16;;;;;;;0.20;0.20;;;;;;;18.29;47.89;100440.28;4765412;29;20054;-95
2022/11/15 07:17:42;;;;;;;0.47;0.20;;;;;;;18.30;47.90;100447.38;4765919;29;20121;-94
2022/11/15 07:20:08;;;;;;;0.20;0.20;;;;;;;18.31;47.96;100450.88;4769299;29;20396;-92
2022/11/15 07:22:33;;;;;;;0.10;0.10;;;;;;;18.32;47.85;100449.84;4757428;29;20129;-94
2022/11/15 07:24:59;;;;;;;0.10;0.10;;;;;;;18.28;47.79;100459.47;4768434;29;20361;-94
2022/11/15 07:27:25;;;;;;;0.10;0.10;;;;;;;18.23;47.81;100451.22;4780425;29;20382;-94
2022/11/15 07:29:50;;;;;;;0.10;0.10;;;;;;;18.23;47.76;100465.59;4786009;29;20034;-92
2022/11/15 07:32:16;;;;;;;0.15;0.15;;;;;;;18.25;47.75;100477.00;4767068;29;20034;-93
2022/11/15 07:34:42;;;;;;;0.77;0.20;;;;;;;18.25;47.74;100471.59;4783132;29;20095;-93
2022/11/15 07:37:07;;;;;;;0.10;0.10;;;;;;;18.30;47.68;100478.97;4769849;29;20499;-93
2022/11/15 07:39:33;;;;;;;0.20;0.20;;;;;;;18.32;47.66;100488.53;4762528;29;20577;-93
2022/11/15 07:44:43;;;;;;;0.10;0.10;;;;;;;18.28;47.53;100510.88;4787803;29;20103;-92
2022/11/15 07:47:08;;;;;;;0.30;0.10;;;;;;;18.24;47.71;100513.22;4769350;29;20058;-94
2022/11/15 07:49:34;;;;;;;0.17;0.17;;;;;;;18.30;47.61;100522.25;4769359;29;20122;-93
2022/11/15 07:52:00;;;;;;;0.52;0.15;;;;;;;18.29;47.47;100531.47;4770313;29;20033;-94
2022/11/15 07:54:25;;;;;;;0.13;0.13;;;;;;;18.25;47.55;100525.69;4771638;29;20454;-94
2022/11/15 07:56:51;;;;;;;0.63;0.20;;;;;;;18.34;47.35;100550.53;4777618;29;20030;-94
2022/11/15 07:59:16;;;;;;;0.10;0.10;;;;;;;18.27;47.55;100545.22;4769417;29;20030;-95
2022/11/15 08:01:42;;;;;;;0.20;0.20;;;;;;;18.26;47.41;100554.38;4768467;29;20043;-95
2022/11/15 08:04:09;;;;;;;0.10;0.10;;;;;;;18.29;47.34;100570.16;4768134;29;20066;-93
2022/11/15 08:06:35;;;;;;;0.45;0.20;;;;;;;18.27;47.33;100561.44;4764585;29;20122;-94
2022/11/15 08:09:01;;;;;;;0.20;0.20;;;;;;;18.16;47.23;100556.84;4770223;29;20528;-94
2022/11/15 08:11:26;;;;;;;0.20;0.20;;;;;;;18.26;46.98;100580.63;4771311;29;20519;-95
2022/11/15 08:13:52;;;;;;;0.10;0.10;;;;;;;18.24;47.43;100578.16;4777484;29;20042;-93
2022/11/15 08:16:18;;;;;;;0.13;0.13;;;;;;;18.23;47.12;100581.06;4766637;29;20046;-95
2022/11/15 08:18:43;;;;;;;0.10;0.10;;;;;;;18.21;47.04;100586.72;4770032;29;20130;-94
2022/11/15 08:21:09;;;;;;;0.10;0.10;;;;;;;18.29;47.14;100615.31;4789963;29;20514;-94
2022/11/15 08:23:35;;;;;;;0.20;0.10;;;;;;;18.28;47.05;100616.38;4782310;29;20038;-93
2022/11/15 08:26:02;;;;;;;0.10;0.10;;;;;;;18.27;47.23;100620.16;4784356;29;20027;-94
2022/11/15 08:28:28;;;;;;;0.35;0.20;;;;;;;18.33;47.29;100621.91;4768193;29;20098;-92
2022/11/15 08:30:54;;;;;;;0.10;0.10;;;;;;;18.28;46.76;100628.03;4764826;29;20031;-93
2022/11/15 08:33:19;;;;;;;0.10;0.10;;;;;;;18.21;47.00;100616.47;4777004;29;20039;-94
2022/11/15 08:35:45;;;;;;;0.10;0.10;;;;;;;18.26;46.83;100634.72;4770654;29;20128;-93
2022/11/15 08:38:11;;;;;;;0.30;0.10;;;;;;;18.32;46.86;100644.63;4781593;29;20349;-93
2022/11/15 08:40:36;;;;;;;0.10;0.10;;;;;;;18.31;46.82;100643.78;4769546;29;20515;-93
2022/11/15 08:43:02;;;;;;;0.10;0.10;;;;;;;18.28;46.78;100643.44;4769256;29;20038;-95
2022/11/15 08:45:31;;;;;;;1.13;0.10;;;;;;;18.30;46.63;100652.13;4778469;29;20125;-93
2022/11/15 08:47:57;;;;;;;0.20;0.15;;;;;;;18.19;46.76;100630.22;4784488;29;20069;-93
2022/11/15 08:50:22;;;;;;;0.10;0.10;;;;;;;18.30;46.77;100655.69;4769336;29;20127;-94
2022/11/15 08:52:49;;;;;;;0.17;0.17;;;;;;;18.29;46.95;100650.50;4782230;29;20036;-93
2022/11/15 08:55:14;;;;;;;0.10;0.10;;;;;;;18.23;46.80;100651.41;4791053;29;20074;-93
2022/11/15 08:57:40;;;;;;;0.10;0.10;;;;;;;18.34;46.81;100666.84;4769588;29;20117;-94
2022/11/15 09:00:07;;;;;;;0.10;0.10;;;;;;;18.29;46.80;100650.50;4801973;29;20377;-95
2022/11/15 09:02:32;;;;;;;0.10;0.10;;;;;;;18.35;46.61;100668.50;4764968;29;20179;-94
2022/11/15 09:04:58;;;;;;;0.10;0.10;;;;;;;18.25;46.97;100662.81;4773866;29;20122;-94
2022/11/15 09:07:23;;;;;;;0.10;0.10;;;;;;;18.27;46.75;100666.97;4788241;29;20030;-94
2022/11/15 09:09:49;;;;;;;0.10;0.10;;;;;;;18.31;46.63;100680.84;4772014;29;20074;-94
2022/11/15 09:12:15;;;;;;;0.60;0.20;;;;;;;18.33;46.77;100676.03;4773970;29;20038;-93
2022/11/15 09:14:40;;;;;;;0.10;0.10;;;;;;;18.27;46.71;100674.25;4765899;29;20038;-94
2022/11/15 09:17:12;;;;;;;0.52;0.10;;;;;;;18.27;46.89;100685.06;4771914;29;20038;-94
2022/11/15 09:19:38;;;;;;;0.10;0.10;;;;;;;18.32;46.79;100698.75;4772378;29;20492;-95
2022/11/15 09:22:06;;;;;;;0.10;0.10;;;;;;;18.22;46.80;100687.66;4769103;29;20133;-94
2022/11/15 09:24:31;;;;;;;0.13;0.13;;;;;;;18.26;47.01;100695.06;4802026;29;20035;-94
2022/11/15 09:26:57;;;;;;;0.63;0.22;;;;;;;18.29;46.78;100699.19;4767388;29;20504;-94
2022/11/15 09:29:23;;;;;;;0.93;0.50;;;;;;;18.35;46.90;100703.66;4789979;29;20037;-95
2022/11/15 09:31:48;;;;;;;0.73;0.60;;;;;;;18.35;46.99;100703.66;4771478;29;20035;-94
2022/11/15 09:34:14;;;;;;;2.15;1.13;;;;;;;18.28;47.01;100694.81;4772882;29;20027;-94
2022/11/15 09:36:40;;;;;;;3.30;1.20;;;;;;;18.29;46.93;100693.78;4766244;29;20548;-94
2022/11/15 09:39:05;;;;;;;1.85;1.30;;;;;;;18.35;47.03;100698.25;4764361;29;20548;-93
2022/11/15 09:41:46;;;;;;;3.22;1.88;;;;;;;18.31;47.16;100702.50;4783992;29;20164;-94
2022/11/15 09:44:50;;;;;;;4.72;2.70;;;;;;;18.38;47.01;100719.44;4801049;29;20038;-94
2022/11/15 09:47:34;;;;;;;11.55;2.97;;;;;;;18.36;47.09;100721.56;4795544;29;20098;-94
2022/11/15 09:50:01;;;;;;;3.63;1.92;;;;;;;18.36;47.10;100716.16;4795215;29;20035;-94
2022/11/15 09:52:27;;;;;;;3.78;2.30;;;;;;;18.27;47.20;100712.13;4771075;29;20042;-94
2022/11/15 09:54:52;;;;;;;3.58;2.00;;;;;;;18.33;47.11;100724.72;4786269;29;20037;-95
2022/11/15 09:57:59;;;;;;;2.90;1.75;;;;;;;18.38;47.07;100731.13;4778302;29;20039;-94
2022/11/15 10:00:35;;;;;;;2.78;1.63;;;;;;;18.32;47.07;100723.09;4781574;29;20050;-94
2022/11/15 10:03:15;;;;;;;3.22;2.00;;;;;;;18.36;47.14;100729.69;4811079;29;20455;-94
2022/11/15 10:05:42;;;;;;;3.50;1.88;;;;;;;18.37;46.94;100725.94;4798925;29;20031;-94
2022/11/15 10:08:47;;;;;;;3.30;1.65;;;;;;;18.37;47.10;100729.44;4784435;29;20062;-94
2022/11/15 10:11:21;;;;;;;3.22;1.67;;;;;;;18.31;46.84;100732.25;4780269;29;20045;-94
2022/11/15 10:13:50;;;;;;;2.83;1.63;;;;;;;18.29;47.03;100732.47;4780076;29;20045;-94
2022/11/15 10:16:28;;;;;;;3.72;1.90;;;;;;;18.38;46.92;100743.78;4784607;29;20117;-93
2022/11/15 10:19:32;;;;;;;2.33;1.45;;;;;;;18.30;46.90;100744.13;4812383;29;20031;-95
2022/11/15 10:22:19;;;;;;;2.73;1.40;;;;;;;18.37;46.91;100756.50;4813615;29;20034;-95
2022/11/15 10:24:45;;;;;;;2.22;1.42;;;;;;;18.33;46.89;100754.47;4794413;29;20030;-94
2022/11/15 10:27:12;;;;;;;3.33;1.70;;;;;;;18.31;47.04;100756.59;4783736;29;20392;-94
2022/11/15 10:29:43;;;;;;;2.72;1.70;;;;;;;18.35;47.01;100768.59;4767972;29;20030;-94
2022/11/15 10:32:10;;;;;;;2.30;1.40;;;;;;;18.32;46.91;100774.50;4796802;29;20149;-94
2022/11/15 10:34:36;;;;;;;1.90;1.17;;;;;;;18.32;46.85;100760.97;4767939;29;20495;-93
2022/11/15 10:37:02;;;;;;;1.90;1.30;;;;;;;18.34;46.76;100765.06;4770709;29;20183;-95
2022/11/15 10:39:28;;;;;;;1.77;1.15;;;;;;;18.29;46.76;100764.94;4764754;29;20047;-93
2022/11/15 10:41:54;;;;;;;3.38;1.58;;;;;;;18.24;46.75;100761.28;4771646;29;20030;-95
2022/11/15 10:44:29;;;;;;;1.70;1.20;;;;;;;18.26;46.70;100748.34;4762706;29;20038;-93
2022/11/15 10:46:55;;;;;;;1.75;0.98;;;;;;;18.38;46.64;100769.00;4769454;29;20041;-94
2022/11/15 10:49:25;;;;;;;2.15;1.27;;;;;;;18.32;46.57;100764.50;4798542;29;21021;-94
2022/11/15 10:51:59;;;;;;;2.17;1.25;;;;;;;18.33;46.71;100759.88;4776519;29;20026;-95
2022/11/15 10:54:29;;;;;;;1.45;1.08;;;;;;;18.30;46.52;100782.00;4770657;29;20095;-94
2022/11/15 10:56:57;;;;;;;2.00;0.90;;;;;;;18.21;46.62;100762.56;4770493;29;20034;-94
2022/11/15 10:59:33;;;;;;;2.15;0.90;;;;;;;18.28;46.77;100770.56;4770320;29;20403;-94
2022/11/15 11:01:59;;;;;;;1.13;0.88;;;;;;;18.30;46.70;100785.53;4767566;29;20515;-94
2022/11/15 11:04:26;;;;;;;1.63;1.02;;;;;;;18.29;46.54;100767.66;4801515;29;20058;-93
2022/11/15 11:06:54;;;;;;;4.50;0.90;;;;;;;18.27;46.54;100774.34;4771542;29;20034;-95
2022/11/15 11:09:33;;;;;;;1.20;0.73;;;;;;;18.34;46.43;100772.38;4760374;29;20034;-95
2022/11/15 11:12:00;;;;;;;1.48;0.85;;;;;;;18.35;46.58;100784.84;4771438;29;20501;-94
2022/11/15 11:14:33;;;;;;;1.45;1.05;;;;;;;18.40;46.54;100793.09;4781071;29;20043;-94
2022/11/15 11:17:02;;;;;;;1.27;0.60;;;;;;;18.36;46.79;100797.31;4772420;29;20397;-94
2022/11/15 11:19:57;;;;;;;1.00;0.80;;;;;;;18.36;46.64;100803.56;4795823;29;20027;-94
2022/11/15 11:22:26;;;;;;;1.38;0.98;;;;;;;18.39;46.61;100803.09;4813019;29;20087;-94
2022/11/15 11:25:17;;;;;;;0.95;0.75;;;;;;;18.39;46.43;100807.69;4781974;29;20026;-94
2022/11/15 11:28:15;;;;;;;0.85;0.60;;;;;;;18.34;46.54;100794.84;4786025;29;20044;-94
2022/11/15 11:30:59;;;;;;;0.75;0.70;;;;;;;18.39;46.60;100811.22;4814412;29;20034;-94
2022/11/15 11:33:33;;;;;;;1.52;0.77;;;;;;;18.30;46.79;100796.38;4811397;29;20059;-94
2022/11/15 11:36:30;;;;;;;0.60;0.60;;;;;;;18.40;46.62;100809.31;4784516;29;20069;-94
2022/11/15 11:39:16;;;;;;;1.20;0.63;;;;;;;18.40;46.56;100812.03;4812726;29;20034;-94
2022/11/15 11:42:04;;;;;;;0.88;0.70;;;;;;;18.40;46.62;100820.16;4796325;29;20043;-94
2022/11/15 11:44:45;;;;;;;1.67;0.88;;;;;;;18.35;46.61;100807.31;4807463;29;20042;-93
2022/11/15 11:47:12;;;;;;;0.85;0.70;;;;;;;18.27;46.71;100804.13;4795379;29;20034;-94